Time;durP1;ratioP1;P1;durP2;ratioP2;P2;SDS_P1;SDS_P2;PMS_P1;PMS_P2;Temp;Humidity;BMP_temperature;BMP_pressure;BME280_temperature;BME280_humidity;BME280_pressure;Samples;Min_cycle;Max_cycle;Signal;HPM_P1;HPM_P2
2023/01/07 00:01:21;;;;;;;11.60;2.13;;;11.40;99.90;;;;;;4989428;28;20023;-68
2023/01/07 00:03:48;;;;;;;15.10;2.45;;;11.40;99.90;;;;;;4986697;28;20062;-70
2023/01/07 00:06:35;;;;;;;11.23;2.72;;;11.40;99.90;;;;;;4983560;28;20046;-68
2023/01/07 00:09:03;;;;;;;14.07;2.85;;;11.40;99.90;;;;;;4985830;28;20038;-68
2023/01/07 00:11:31;;;;;;;21.65;2.35;;;11.40;99.90;;;;;;4993749;28;20119;-71
2023/01/07 00:13:59;;;;;;;9.70;1.88;;;11.40;99.90;;;;;;4992074;28;21982;-68
2023/01/07 00:16:27;;;;;;;11.23;2.33;;;11.40;99.90;;;;;;4993458;28;20030;-68
2023/01/07 00:18:54;;;;;;;12.40;2.38;;;11.50;99.90;;;;;;4991368;28;20034;-68
2023/01/07 00:21:22;;;;;;;13.52;2.40;;;11.40;99.90;;;;;;4993987;28;20032;-68
2023/01/07 00:23:48;;;;;;;12.18;1.98;;;11.40;99.90;;;;;;4991759;28;20030;-70
2023/01/07 00:26:19;;;;;;;12.10;2.10;;;11.40;99.90;;;;;;4993399;28;20033;-68
2023/01/07 00:28:47;;;;;;;14.82;2.20;;;11.50;99.90;;;;;;4990683;28;20382;-69
2023/01/07 00:31:21;;;;;;;13.85;2.47;;;11.50;99.90;;;;;;4993006;28;20038;-69
2023/01/07 00:34:05;;;;;;;13.23;2.42;;;11.40;99.90;;;;;;4991101;28;20022;-69
2023/01/07 00:36:34;;;;;;;9.45;2.20;;;11.50;99.90;;;;;;4988732;28;20031;-69
2023/01/07 00:39:09;;;;;;;13.80;2.70;;;11.50;99.90;;;;;;4988932;28;20025;-69
2023/01/07 00:41:35;;;;;;;14.73;2.47;;;11.50;99.90;;;;;;4990222;28;20019;-68
2023/01/07 00:44:01;;;;;;;12.30;2.63;;;11.50;99.90;;;;;;4990715;28;20026;-69
2023/01/07 00:46:26;;;;;;;8.57;2.22;;;11.50;99.90;;;;;;4992350;28;20023;-68
2023/01/07 00:48:52;;;;;;;11.52;1.92;;;11.50;99.90;;;;;;4991025;28;20089;-69
2023/01/07 00:51:18;;;;;;;8.23;2.33;;;11.40;99.90;;;;;;4992905;28;20494;-68
2023/01/07 00:53:45;;;;;;;11.52;2.60;;;11.40;99.90;;;;;;4991124;28;20033;-69
2023/01/07 00:56:11;;;;;;;12.63;3.00;;;11.40;99.90;;;;;;4992385;28;20066;-68
2023/01/07 00:58:37;;;;;;;16.27;2.05;;;11.40;99.90;;;;;;4991580;28;20546;-68
2023/01/07 01:01:03;;;;;;;14.73;3.20;;;11.40;99.90;;;;;;4990074;28;20085;-69
2023/01/07 01:03:30;;;;;;;16.90;2.50;;;11.40;99.90;;;;;;4992125;28;20109;-68
2023/01/07 01:06:04;;;;;;;11.63;2.63;;;11.30;99.90;;;;;;4989049;28;20421;-69
2023/01/07 01:08:30;;;;;;;9.43;1.60;;;11.30;99.90;;;;;;4992115;28;20127;-69
2023/01/07 01:11:05;;;;;;;14.88;2.40;;;11.30;99.90;;;;;;4989747;28;20490;-69
2023/01/07 01:13:31;;;;;;;14.63;1.90;;;11.30;99.90;;;;;;4992308;28;20072;-71
2023/01/07 01:15:57;;;;;;;12.57;2.28;;;11.30;99.90;;;;;;4990480;28;20389;-69
2023/01/07 01:18:23;;;;;;;13.38;2.25;;;11.30;99.90;;;;;;4991959;28;20026;-70
2023/01/07 01:20:48;;;;;;;8.68;1.88;;;11.30;99.90;;;;;;4990144;28;20023;-70
2023/01/07 01:23:14;;;;;;;13.25;2.22;;;11.30;99.90;;;;;;4991872;28;20026;-68
2023/01/07 01:25:40;;;;;;;9.73;2.75;;;11.30;99.90;;;;;;4992272;28;20034;-69
2023/01/07 01:28:05;;;;;;;6.70;1.80;;;11.30;99.90;;;;;;4989762;28;20109;-69
2023/01/07 01:30:31;;;;;;;13.68;2.40;;;11.30;99.90;;;;;;4992503;28;20038;-68
2023/01/07 01:32:57;;;;;;;11.45;2.10;;;11.30;99.90;;;;;;4990293;28;20052;-70
2023/01/07 01:35:25;;;;;;;16.52;3.05;;;11.30;99.90;;;;;;4992542;28;20092;-69
2023/01/07 01:37:50;;;;;;;12.10;1.88;;;11.20;99.90;;;;;;4989226;28;20091;-69
2023/01/07 01:40:16;;;;;;;11.50;2.08;;;11.20;99.90;;;;;;4990433;28;20038;-69
2023/01/07 01:42:42;;;;;;;9.57;2.05;;;11.20;99.90;;;;;;4987768;28;20084;-68
2023/01/07 01:45:09;;;;;;;11.57;2.20;;;11.30;99.90;;;;;;4992106;28;20334;-69
2023/01/07 01:48:02;;;;;;;11.75;2.10;;;11.30;99.90;;;;;;4991858;28;20032;-69
2023/01/07 01:50:37;;;;;;;11.15;2.40;;;11.20;99.90;;;;;;4991372;28;20487;-69
2023/01/07 01:53:12;;;;;;;9.05;2.15;;;11.20;99.90;;;;;;4987252;28;20034;-69
2023/01/07 01:56:10;;;;;;;14.05;4.15;;;11.20;99.90;;;;;;4991692;28;20022;-69
2023/01/07 01:58:41;;;;;;;14.48;2.38;;;11.20;99.90;;;;;;4980047;28;20046;-68
2023/01/07 02:01:08;;;;;;;8.68;2.78;;;11.10;99.90;;;;;;4985389;28;20014;-69
2023/01/07 02:03:36;;;;;;;15.30;2.55;;;11.00;99.90;;;;;;4990764;28;20054;-68
2023/01/07 02:06:02;;;;;;;11.13;3.20;;;11.10;99.90;;;;;;4988052;28;20078;-69
2023/01/07 02:08:28;;;;;;;21.38;2.78;;;11.10;99.90;;;;;;4985589;28;20045;-68
2023/01/07 02:11:05;;;;;;;14.45;2.03;;;11.20;99.90;;;;;;4988841;28;20046;-69
2023/01/07 02:14:00;;;;;;;11.18;1.88;;;11.20;99.90;;;;;;4988183;28;20089;-69
2023/01/07 02:16:47;;;;;;;13.13;2.80;;;11.20;99.90;;;;;;4945637;29;20058;-69
2023/01/07 02:19:31;;;;;;;13.05;1.80;;;11.20;99.90;;;;;;4947755;29;20035;-70
2023/01/07 02:22:04;;;;;;;14.75;2.22;;;11.20;99.90;;;;;;4942612;29;20511;-69
2023/01/07 02:24:32;;;;;;;10.27;2.90;;;11.20;99.90;;;;;;4948659;29;20079;-68
2023/01/07 02:27:13;;;;;;;8.10;2.00;;;11.20;99.90;;;;;;4948617;29;20047;-70
2023/01/07 02:30:08;;;;;;;9.88;1.60;;;11.20;99.90;;;;;;4947918;29;20479;-69
2023/01/07 02:32:42;;;;;;;11.45;2.42;;;11.20;99.90;;;;;;4948774;28;20168;-69
2023/01/07 02:35:08;;;;;;;10.80;2.65;;;11.10;99.90;;;;;;4950082;29;20143;-69
2023/01/07 02:37:57;;;;;;;11.52;2.53;;;11.10;99.90;;;;;;4949845;29;20062;-68
2023/01/07 02:40:52;;;;;;;9.75;2.00;;;11.10;99.90;;;;;;4943871;29;20031;-68
2023/01/07 02:43:46;;;;;;;14.98;3.47;;;11.10;99.90;;;;;;4945448;29;20027;-68
2023/01/07 02:46:22;;;;;;;15.35;2.28;;;11.10;99.90;;;;;;4941903;29;20059;-69
2023/01/07 02:48:48;;;;;;;12.07;2.13;;;11.10;99.90;;;;;;4942804;29;20031;-69
2023/01/07 02:51:13;;;;;;;14.43;1.75;;;11.10;99.90;;;;;;4949876;29;20043;-69
2023/01/07 02:53:42;;;;;;;12.02;2.60;;;11.10;99.90;;;;;;4974344;28;20085;-69
2023/01/07 02:56:34;;;;;;;10.77;2.38;;;11.10;99.90;;;;;;4989484;28;20022;-68
2023/01/07 02:59:40;;;;;;;8.50;1.77;;;11.00;99.90;;;;;;4982244;28;20100;-68
2023/01/07 03:02:17;;;;;;;7.45;2.13;;;11.00;99.90;;;;;;4985371;28;20272;-70
2023/01/07 03:05:12;;;;;;;12.15;2.25;;;11.10;99.90;;;;;;4987411;28;20030;-69
2023/01/07 03:07:45;;;;;;;11.48;1.90;;;11.00;99.90;;;;;;4929930;29;20505;-69
2023/01/07 03:10:31;;;;;;;9.98;2.72;;;11.00;99.90;;;;;;4928916;29;20024;-69
2023/01/07 03:13:25;;;;;;;14.73;2.47;;;11.10;99.90;;;;;;4879902;29;20044;-69
2023/01/07 03:16:12;;;;;;;11.13;1.77;;;11.00;99.90;;;;;;4919148;29;20036;-69
2023/01/07 03:18:45;;;;;;;14.77;1.95;;;11.00;99.90;;;;;;4895785;29;20040;-69
2023/01/07 03:21:14;;;;;;;8.85;1.75;;;11.00;99.90;;;;;;4928938;29;20034;-69
2023/01/07 03:23:44;;;;;;;14.02;2.38;;;11.00;99.90;;;;;;4930375;29;20044;-68
2023/01/07 03:26:11;;;;;;;12.52;2.30;;;11.00;99.90;;;;;;4923070;29;20485;-69
2023/01/07 03:28:40;;;;;;;9.82;1.90;;;10.90;99.90;;;;;;4930438;29;20484;-69
2023/01/07 03:31:10;;;;;;;15.38;2.22;;;11.00;99.90;;;;;;4925674;29;20040;-70
2023/01/07 03:34:04;;;;;;;14.63;2.47;;;10.90;99.90;;;;;;4924444;29;20130;-70
2023/01/07 03:36:38;;;;;;;14.88;3.10;;;10.90;99.90;;;;;;4924808;29;20028;-69
2023/01/07 03:39:06;;;;;;;13.70;2.20;;;10.90;99.90;;;;;;4924318;29;20443;-69
2023/01/07 03:44:37;;;;;;;10.18;1.70;;;10.90;99.90;;;;;;4882706;29;20055;-73
2023/01/07 03:47:03;;;;;;;6.88;1.60;;;10.90;99.90;;;;;;4910055;29;20040;-69
2023/01/07 03:49:29;;;;;;;8.35;1.60;;;10.90;99.90;;;;;;4910295;29;20043;-69
2023/01/07 03:51:55;;;;;;;12.13;2.53;;;10.90;99.90;;;;;;4908999;29;20044;-68
2023/01/07 03:54:22;;;;;;;11.75;1.52;;;11.00;99.90;;;;;;4910409;29;20111;-70
2023/01/07 03:56:48;;;;;;;9.02;1.67;;;10.90;99.90;;;;;;4907435;29;20048;-69
2023/01/07 03:59:14;;;;;;;11.02;1.67;;;10.90;99.90;;;;;;4911480;29;20028;-69
2023/01/07 04:01:40;;;;;;;9.77;1.80;;;10.90;99.90;;;;;;4910867;29;20044;-69
2023/01/07 04:04:05;;;;;;;14.93;2.33;;;10.90;99.90;;;;;;4909920;29;20118;-69
2023/01/07 04:06:31;;;;;;;6.70;1.55;;;10.90;99.90;;;;;;4909593;29;20099;-69
2023/01/07 04:08:57;;;;;;;10.93;1.98;;;10.90;99.90;;;;;;4908989;29;20040;-70
2023/01/07 04:11:23;;;;;;;9.82;2.00;;;10.80;99.90;;;;;;4910654;29;20043;-69
2023/01/07 04:13:48;;;;;;;7.50;1.50;;;10.90;99.90;;;;;;4906967;29;20036;-68
2023/01/07 04:16:14;;;;;;;13.05;1.92;;;10.80;99.90;;;;;;4978720;28;20133;-70
2023/01/07 04:18:40;;;;;;;18.65;3.53;;;10.80;99.90;;;;;;4988242;28;20470;-69
2023/01/07 04:21:05;;;;;;;11.68;2.35;;;10.80;99.90;;;;;;4987980;28;20121;-69
2023/01/07 04:23:31;;;;;;;10.15;1.63;;;10.80;99.90;;;;;;4989305;28;20446;-69
2023/01/07 04:25:57;;;;;;;15.15;1.67;;;10.80;99.90;;;;;;4981708;28;20037;-69
2023/01/07 04:28:23;;;;;;;10.18;2.40;;;10.80;99.90;;;;;;4974960;28;20503;-69
2023/01/07 04:30:48;;;;;;;13.90;2.47;;;10.80;99.90;;;;;;4980033;28;20031;-70
2023/01/07 04:33:14;;;;;;;9.07;2.30;;;10.80;99.90;;;;;;4985726;28;20061;-70
2023/01/07 04:35:44;;;;;;;7.70;1.67;;;10.80;99.90;;;;;;4980124;28;20038;-70
2023/01/07 04:38:10;;;;;;;7.80;1.52;;;10.80;99.90;;;;;;4985743;28;20418;-70
2023/01/07 04:40:35;;;;;;;15.32;3.38;;;10.80;99.90;;;;;;4990233;28;20494;-70
2023/01/07 04:43:01;;;;;;;11.02;2.03;;;10.80;99.90;;;;;;4984455;28;20073;-69
2023/01/07 04:45:27;;;;;;;15.60;3.35;;;10.80;99.90;;;;;;4989791;28;20017;-70
2023/01/07 04:47:56;;;;;;;7.93;2.00;;;10.80;99.90;;;;;;4987212;28;20034;-70
2023/01/07 04:50:22;;;;;;;7.97;1.60;;;10.80;99.90;;;;;;4989813;28;20022;-70
2023/01/07 04:52:48;;;;;;;12.00;2.72;;;10.80;99.90;;;;;;4987203;28;20073;-71
2023/01/07 04:55:14;;;;;;;12.82;2.13;;;10.80;99.90;;;;;;4984484;28;20073;-70
2023/01/07 04:57:40;;;;;;;12.20;2.78;;;10.70;99.90;;;;;;4990134;28;20066;-69
2023/01/07 05:00:07;;;;;;;8.57;1.75;;;10.70;99.90;;;;;;4989140;28;20023;-70
2023/01/07 05:02:33;;;;;;;14.95;5.75;;;10.70;99.90;;;;;;4984534;28;20030;-69
2023/01/07 05:04:59;;;;;;;6.82;1.52;;;10.70;99.90;;;;;;4990877;28;20049;-69
2023/01/07 05:07:25;;;;;;;9.95;1.58;;;10.70;99.90;;;;;;4991414;28;20058;-69
2023/01/07 05:09:50;;;;;;;9.10;2.10;;;10.70;99.90;;;;;;4990835;28;20526;-70
2023/01/07 05:12:16;;;;;;;8.98;2.33;;;10.70;99.90;;;;;;4987788;28;20042;-70
2023/01/07 05:14:42;;;;;;;8.27;2.05;;;10.70;99.90;;;;;;4992655;28;20057;-68
2023/01/07 05:17:08;;;;;;;12.38;2.20;;;10.70;99.90;;;;;;4992108;28;20418;-69
2023/01/07 05:19:33;;;;;;;11.25;2.03;;;10.70;99.90;;;;;;4991954;28;20041;-69
2023/01/07 05:21:59;;;;;;;8.73;2.65;;;10.70;99.90;;;;;;4990892;28;20030;-71
2023/01/07 05:24:25;;;;;;;8.48;2.33;;;10.70;99.90;;;;;;4992751;28;20029;-69
2023/01/07 05:26:51;;;;;;;9.15;1.83;;;10.70;99.90;;;;;;4990650;28;20022;-69
2023/01/07 05:29:16;;;;;;;7.60;1.58;;;10.70;99.90;;;;;;4991073;28;20390;-69
2023/01/07 05:31:42;;;;;;;10.70;1.50;;;10.70;99.90;;;;;;4991816;28;20042;-69
2023/01/07 05:34:08;;;;;;;11.50;1.25;;;10.70;99.90;;;;;;4991553;28;20398;-69
2023/01/07 05:36:34;;;;;;;10.25;1.80;;;10.70;99.90;;;;;;4992124;28;20041;-69
2023/01/07 05:38:59;;;;;;;9.48;2.08;;;10.70;99.90;;;;;;4989269;28;20027;-70
2023/01/07 05:41:25;;;;;;;9.05;2.00;;;10.70;99.90;;;;;;4988902;28;20030;-68
2023/01/07 05:43:51;;;;;;;10.52;1.75;;;10.60;99.90;;;;;;4988953;28;20482;-70
2023/01/07 05:46:17;;;;;;;4.40;1.25;;;10.60;99.90;;;;;;4991373;28;20372;-69
2023/01/07 05:48:42;;;;;;;19.77;3.67;;;10.60;99.90;;;;;;4990080;28;20367;-70
2023/01/07 05:51:08;;;;;;;10.05;2.05;;;10.50;99.90;;;;;;4990583;28;20398;-70
2023/01/07 05:53:34;;;;;;;10.05;1.90;;;10.50;99.90;;;;;;4992325;28;20498;-70
2023/01/07 05:56:00;;;;;;;7.53;1.90;;;10.50;99.90;;;;;;4988370;28;20018;-70
2023/01/07 05:58:27;;;;;;;8.02;2.45;;;10.50;99.90;;;;;;4991050;28;20087;-70
2023/01/07 06:00:53;;;;;;;10.38;1.90;;;10.50;99.90;;;;;;4982771;28;20062;-71
2023/01/07 06:03:20;;;;;;;14.43;2.05;;;10.40;99.90;;;;;;4990122;28;20019;-71
2023/01/07 06:05:48;;;;;;;10.75;2.38;;;10.40;99.90;;;;;;4989461;28;20088;-71
2023/01/07 06:08:15;;;;;;;10.68;2.38;;;10.30;99.90;;;;;;4990337;28;20030;-70
2023/01/07 06:10:43;;;;;;;11.07;1.92;;;10.30;99.90;;;;;;4991386;28;20034;-71
2023/01/07 06:13:09;;;;;;;10.30;1.88;;;10.30;99.90;;;;;;4987542;28;20403;-72
2023/01/07 06:15:35;;;;;;;8.93;1.92;;;10.30;99.90;;;;;;4991801;28;20038;-73
2023/01/07 06:18:00;;;;;;;8.30;1.80;;;10.30;99.90;;;;;;4987095;28;20095;-72
2023/01/07 06:20:28;;;;;;;12.82;1.58;;;10.30;99.90;;;;;;4991441;28;20493;-73
2023/01/07 06:22:54;;;;;;;9.68;1.90;;;10.30;99.90;;;;;;4989258;28;20036;-72
2023/01/07 06:25:20;;;;;;;14.15;2.00;;;10.40;99.90;;;;;;4991410;28;20030;-70
2023/01/07 06:27:45;;;;;;;6.00;3.13;;;10.40;99.90;;;;;;4987651;28;20030;-71
2023/01/07 06:30:11;;;;;;;12.25;2.42;;;10.50;99.90;;;;;;4991311;28;20022;-71
2023/01/07 06:32:42;;;;;;;11.75;2.50;;;10.50;99.90;;;;;;4990876;28;20121;-71
2023/01/07 06:35:10;;;;;;;13.68;3.08;;;10.60;99.90;;;;;;4985287;28;20038;-72
2023/01/07 06:37:36;;;;;;;7.70;1.45;;;10.60;99.90;;;;;;4990114;28;20441;-71
2023/01/07 06:40:02;;;;;;;14.57;3.28;;;10.60;99.90;;;;;;4990360;28;20030;-71
2023/01/07 06:42:28;;;;;;;7.93;2.55;;;10.70;99.90;;;;;;4989850;28;20026;-72
2023/01/07 06:44:53;;;;;;;11.13;2.53;;;10.60;99.90;;;;;;4987955;28;20030;-71
2023/01/07 06:47:19;;;;;;;11.50;3.25;;;10.60;99.90;;;;;;4990067;28;20098;-72
2023/01/07 06:49:45;;;;;;;9.85;2.25;;;10.60;99.90;;;;;;4989715;28;20431;-70
2023/01/07 06:52:11;;;;;;;7.57;2.03;;;10.60;99.90;;;;;;4987821;28;20050;-71
2023/01/07 06:54:36;;;;;;;8.55;1.70;;;10.60;99.90;;;;;;4988955;28;20030;-72
2023/01/07 06:57:02;;;;;;;11.57;1.90;;;10.60;99.90;;;;;;4987599;28;20479;-71
2023/01/07 06:59:28;;;;;;;13.00;2.63;;;10.60;99.90;;;;;;4987639;28;20058;-72
2023/01/07 07:01:53;;;;;;;4.43;1.30;;;10.60;99.90;;;;;;4986654;28;20026;-71
2023/01/07 07:04:20;;;;;;;12.48;2.45;;;10.60;99.90;;;;;;4989948;28;20030;-71
2023/01/07 07:06:46;;;;;;;12.05;2.72;;;10.60;99.90;;;;;;4989069;28;20046;-71
2023/01/07 07:09:12;;;;;;;5.00;2.55;;;10.60;99.90;;;;;;4991602;28;20104;-71
2023/01/07 07:11:38;;;;;;;8.15;1.58;;;10.60;99.90;;;;;;4989039;28;20031;-71
2023/01/07 07:14:03;;;;;;;8.27;1.90;;;10.60;99.90;;;;;;4989154;28;20057;-70
2023/01/07 07:16:29;;;;;;;10.43;2.38;;;10.60;99.90;;;;;;4989068;28;20026;-71
2023/01/07 07:18:55;;;;;;;9.18;1.65;;;10.60;99.90;;;;;;4988487;28;20033;-70
2023/01/07 07:21:21;;;;;;;17.50;2.15;;;10.60;99.90;;;;;;4990953;28;20030;-71
2023/01/07 07:23:46;;;;;;;10.30;2.20;;;10.60;99.90;;;;;;4988169;28;20469;-71
2023/01/07 07:26:12;;;;;;;10.20;1.63;;;10.60;99.90;;;;;;4990171;28;20022;-70
2023/01/07 07:28:41;;;;;;;13.73;2.38;;;10.60;99.90;;;;;;4985701;28;20435;-71
2023/01/07 07:31:08;;;;;;;14.98;2.60;;;10.50;99.90;;;;;;4989181;28;20053;-71
2023/01/07 07:33:34;;;;;;;9.43;2.03;;;10.60;99.90;;;;;;4989850;28;20029;-71
2023/01/07 07:36:00;;;;;;;13.85;2.10;;;10.50;99.90;;;;;;4986278;28;20038;-71
2023/01/07 07:38:26;;;;;;;14.88;2.83;;;10.50;99.90;;;;;;4990959;28;20026;-71
2023/01/07 07:40:51;;;;;;;13.00;2.80;;;10.50;99.90;;;;;;4988806;28;20420;-70
2023/01/07 07:43:17;;;;;;;11.48;2.22;;;10.50;99.90;;;;;;4989750;28;20492;-70
2023/01/07 07:45:43;;;;;;;6.65;1.58;;;10.50;99.90;;;;;;4988717;28;20037;-70
2023/01/07 07:48:10;;;;;;;8.80;1.83;;;10.50;99.90;;;;;;4990511;28;20050;-70
2023/01/07 07:50:36;;;;;;;12.10;2.17;;;10.60;99.90;;;;;;4990089;28;20069;-72
2023/01/07 07:53:02;;;;;;;9.38;1.55;;;10.50;99.90;;;;;;4987916;28;20511;-71
2023/01/07 07:55:28;;;;;;;13.70;2.17;;;10.50;99.90;;;;;;4990221;28;20076;-71
2023/01/07 07:57:55;;;;;;;9.13;1.55;;;10.60;99.90;;;;;;4988053;28;20045;-71
2023/01/07 08:00:21;;;;;;;7.90;1.88;;;10.50;99.90;;;;;;4989877;28;20022;-72
2023/01/07 08:02:47;;;;;;;12.38;2.35;;;10.60;99.90;;;;;;4987421;28;20489;-72
2023/01/07 08:05:12;;;;;;;8.27;1.92;;;10.60;99.90;;;;;;4988749;28;20050;-71
2023/01/07 08:07:38;;;;;;;8.85;2.08;;;10.60;99.90;;;;;;4990110;28;20034;-73
2023/01/07 08:10:05;;;;;;;10.18;2.30;;;10.60;99.90;;;;;;4988581;28;20038;-71
2023/01/07 08:12:31;;;;;;;7.20;2.00;;;10.50;99.90;;;;;;4975421;28;20038;-71
2023/01/07 08:14:57;;;;;;;13.50;2.55;;;10.50;99.90;;;;;;4985756;28;20062;-71
2023/01/07 08:17:22;;;;;;;11.15;1.90;;;10.60;99.90;;;;;;4989421;28;20454;-70
2023/01/07 08:19:48;;;;;;;8.30;2.08;;;10.60;99.90;;;;;;4987422;28;20474;-71
2023/01/07 08:22:14;;;;;;;7.32;1.65;;;10.60;99.90;;;;;;4989809;28;20026;-70
2023/01/07 08:24:39;;;;;;;14.43;3.25;;;10.60;99.90;;;;;;4988968;28;20372;-71
2023/01/07 08:27:05;;;;;;;8.43;2.25;;;10.60;99.90;;;;;;4987734;28;20030;-71
2023/01/07 08:29:31;;;;;;;7.85;1.63;;;10.50;99.90;;;;;;4989593;28;20469;-71
2023/01/07 08:31:57;;;;;;;9.35;1.83;;;10.50;99.90;;;;;;4989589;28;20034;-71
2023/01/07 08:34:22;;;;;;;15.30;2.28;;;10.40;99.90;;;;;;4988401;28;20052;-71
2023/01/07 08:36:48;;;;;;;11.48;2.03;;;10.30;99.90;;;;;;4990902;28;20037;-71
2023/01/07 08:39:14;;;;;;;19.02;2.85;;;10.20;99.90;;;;;;4993559;28;20034;-70
2023/01/07 08:41:40;;;;;;;16.23;2.28;;;10.20;99.90;;;;;;4986193;28;20038;-70
2023/01/07 08:44:06;;;;;;;10.52;2.28;;;10.10;99.90;;;;;;4987533;28;20030;-71
2023/01/07 08:46:31;;;;;;;14.85;3.10;;;10.00;99.90;;;;;;4991232;28;20030;-72
2023/01/07 08:48:57;;;;;;;11.65;3.00;;;10.00;99.90;;;;;;4989790;28;20022;-71
2023/01/07 08:51:23;;;;;;;10.93;2.00;;;10.00;99.90;;;;;;4993215;28;20084;-71
2023/01/07 08:53:48;;;;;;;15.38;3.05;;;9.90;99.90;;;;;;4991121;28;20112;-71
2023/01/07 08:56:14;;;;;;;12.52;2.97;;;9.90;99.90;;;;;;4991207;28;20113;-71
2023/01/07 08:58:40;;;;;;;15.88;3.60;;;9.90;99.90;;;;;;4990212;28;20126;-72
2023/01/07 09:01:06;;;;;;;11.27;2.30;;;9.90;99.90;;;;;;4991473;28;20489;-71
2023/01/07 09:03:33;;;;;;;14.35;2.85;;;9.90;99.90;;;;;;4991055;28;20065;-71
2023/01/07 09:05:59;;;;;;;11.77;2.33;;;9.90;99.90;;;;;;4989947;28;20053;-71
2023/01/07 09:08:25;;;;;;;11.20;2.15;;;9.90;99.90;;;;;;4992993;28;20450;-72
2023/01/07 09:10:50;;;;;;;10.88;2.60;;;9.80;99.90;;;;;;4990334;28;20042;-66
2023/01/07 09:13:16;;;;;;;17.90;4.45;;;9.90;99.90;;;;;;4991437;28;20117;-72
2023/01/07 09:15:42;;;;;;;8.90;2.72;;;9.80;99.90;;;;;;4990836;28;20121;-72
2023/01/07 09:18:07;;;;;;;9.02;2.30;;;9.80;99.90;;;;;;4991488;28;20041;-73
2023/01/07 09:20:33;;;;;;;18.83;3.00;;;9.90;99.90;;;;;;4989181;28;20038;-72
2023/01/07 09:22:59;;;;;;;10.43;2.75;;;9.90;99.90;;;;;;4990644;28;20042;-72
2023/01/07 09:25:25;;;;;;;21.10;4.10;;;9.90;99.90;;;;;;4991741;28;20117;-72
2023/01/07 09:27:50;;;;;;;14.27;3.67;;;9.90;99.90;;;;;;4989687;28;20030;-72
2023/01/07 09:30:16;;;;;;;21.75;3.58;;;9.90;99.90;;;;;;4992103;28;20034;-72
2023/01/07 09:32:43;;;;;;;15.02;3.00;;;10.00;99.90;;;;;;4991595;28;20410;-72
2023/01/07 09:35:09;;;;;;;14.95;3.33;;;9.90;99.90;;;;;;4981355;28;20023;-71
2023/01/07 09:37:35;;;;;;;9.30;3.20;;;9.90;99.90;;;;;;4990633;28;20089;-69
2023/01/07 09:40:01;;;;;;;14.52;2.67;;;9.80;99.90;;;;;;4991341;28;20074;-73
2023/01/07 09:42:35;;;;;;;8.48;2.15;;;9.80;99.90;;;;;;4988969;28;20037;-73
2023/01/07 09:45:09;;;;;;;14.98;2.22;;;9.80;99.90;;;;;;4990100;28;20030;-72
2023/01/07 09:47:37;;;;;;;12.20;3.10;;;9.70;99.90;;;;;;4991482;28;20113;-72
2023/01/07 09:50:27;;;;;;;13.00;2.60;;;9.70;99.90;;;;;;4990625;28;20113;-72
2023/01/07 09:52:59;;;;;;;13.48;2.92;;;9.80;99.90;;;;;;4988453;28;20442;-72
2023/01/07 09:55:31;;;;;;;15.75;3.75;;;9.70;99.90;;;;;;4991797;28;20111;-72
2023/01/07 09:57:57;;;;;;;21.92;3.08;;;9.70;99.90;;;;;;4983970;28;20030;-72
2023/01/07 10:00:23;;;;;;;14.15;2.83;;;9.80;99.90;;;;;;4985273;28;20041;-72
2023/01/07 10:03:28;;;;;;;12.65;3.25;;;9.80;99.90;;;;;;4989800;28;20026;-71
2023/01/07 10:06:17;;;;;;;15.57;3.08;;;9.80;99.90;;;;;;4980660;28;20050;-72
2023/01/07 10:09:10;;;;;;;11.73;3.72;;;9.80;99.90;;;;;;4990796;28;20044;-72
2023/01/07 10:12:00;;;;;;;12.23;3.42;;;9.80;99.90;;;;;;4990318;28;20046;-72
2023/01/07 10:15:16;;;;;;;14.20;2.92;;;9.80;99.90;;;;;;4987831;28;20027;-73
2023/01/07 10:17:47;;;;;;;10.82;2.30;;;9.90;99.90;;;;;;4932456;29;20040;-73
2023/01/07 10:20:33;;;;;;;14.93;1.95;;;9.90;99.90;;;;;;4921576;29;20114;-72
2023/01/07 10:23:34;;;;;;;8.82;2.78;;;10.00;99.90;;;;;;4917231;29;20058;-71
2023/01/07 10:26:02;;;;;;;15.40;2.38;;;10.00;99.90;;;;;;4909371;29;20388;-71
2023/01/07 10:28:47;;;;;;;12.45;3.03;;;10.10;99.90;;;;;;4931122;29;20023;-71
2023/01/07 10:31:25;;;;;;;16.30;3.08;;;10.10;99.90;;;;;;4931710;29;20051;-72
2023/01/07 10:33:52;;;;;;;12.32;4.03;;;10.10;99.90;;;;;;4929359;29;20040;-72
2023/01/07 10:36:29;;;;;;;16.92;3.65;;;10.20;99.90;;;;;;4931529;29;20058;-71
2023/01/07 10:39:05;;;;;;;10.82;2.15;;;10.20;99.90;;;;;;4926638;29;20197;-71
2023/01/07 10:41:41;;;;;;;13.13;2.45;;;10.20;99.90;;;;;;4927761;29;20043;-71
2023/01/07 10:44:42;;;;;;;19.02;3.97;;;10.20;99.90;;;;;;4929910;29;20139;-72
2023/01/07 10:47:27;;;;;;;16.30;2.30;;;10.20;99.90;;;;;;4906515;29;20040;-70
2023/01/07 10:49:58;;;;;;;11.38;2.10;;;10.20;99.90;;;;;;4923161;29;20067;-71
2023/01/07 10:52:31;;;;;;;14.50;3.50;;;10.20;99.90;;;;;;4981880;28;20042;-71
2023/01/07 10:55:12;;;;;;;15.32;3.17;;;10.20;99.90;;;;;;4988265;28;20057;-71
2023/01/07 10:57:38;;;;;;;17.20;2.47;;;10.10;99.90;;;;;;4986210;28;20030;-71
2023/01/07 11:00:09;;;;;;;13.07;2.67;;;10.10;99.90;;;;;;4990021;28;20096;-71
2023/01/07 11:02:37;;;;;;;13.77;2.17;;;10.10;99.90;;;;;;4989633;28;20042;-70
2023/01/07 11:05:03;;;;;;;14.30;3.13;;;10.10;99.90;;;;;;4988236;28;20042;-71
2023/01/07 11:07:54;;;;;;;15.30;2.58;;;10.10;99.90;;;;;;4991036;28;20029;-71
2023/01/07 11:10:24;;;;;;;10.70;2.55;;;10.10;99.90;;;;;;4989444;28;20026;-70
2023/01/07 11:13:20;;;;;;;14.93;2.50;;;10.10;99.90;;;;;;4988632;28;20042;-70
2023/01/07 11:16:06;;;;;;;5.07;1.98;;;10.10;99.90;;;;;;4988530;28;20027;-69
2023/01/07 11:18:39;;;;;;;17.92;3.35;;;10.10;99.90;;;;;;4990073;28;20085;-70
2023/01/07 11:21:05;;;;;;;13.43;4.03;;;10.10;99.90;;;;;;4988957;28;20511;-70
2023/01/07 11:23:42;;;;;;;19.48;3.00;;;10.20;99.90;;;;;;4990737;28;20114;-73
2023/01/07 11:26:25;;;;;;;12.43;2.58;;;10.20;99.90;;;;;;4977415;28;20482;-71
2023/01/07 11:28:57;;;;;;;16.38;3.15;;;10.20;99.90;;;;;;4988583;28;20129;-71
2023/01/07 11:31:44;;;;;;;17.45;3.10;;;10.20;99.90;;;;;;4986455;28;20073;-69
2023/01/07 11:34:33;;;;;;;13.30;3.85;;;10.30;99.90;;;;;;4988761;28;20030;-69
2023/01/07 11:36:59;;;;;;;10.80;2.67;;;10.30;99.90;;;;;;4978920;28;20084;-70
2023/01/07 11:39:31;;;;;;;16.75;2.22;;;10.30;99.90;;;;;;4990585;28;20065;-69
2023/01/07 11:42:37;;;;;;;;;;;10.30;99.90;;;;;;4988574;28;20793;-71
2023/01/07 11:44:49;;;;;;;12.40;2.92;;;10.30;99.90;;;;;;4987474;28;19932;-73
2023/01/07 11:47:18;;;;;;;17.42;2.72;;;10.40;99.90;;;;;;4985655;28;20030;-70
2023/01/07 11:49:45;;;;;;;17.02;3.05;;;10.40;99.90;;;;;;4987553;28;20034;-69
2023/01/07 11:52:18;;;;;;;24.02;2.97;;;10.40;99.90;;;;;;4985361;28;20090;-70
2023/01/07 11:54:50;;;;;;;13.38;2.65;;;10.40;99.90;;;;;;4984199;28;20030;-71
2023/01/07 11:57:25;;;;;;;9.52;2.05;;;10.50;99.90;;;;;;4979092;28;20030;-71
2023/01/07 12:00:11;;;;;;;8.90;2.72;;;10.50;99.90;;;;;;4972407;28;20077;-71
2023/01/07 12:02:37;;;;;;;15.20;2.55;;;10.40;99.90;;;;;;4987280;28;20126;-71
2023/01/07 12:05:25;;;;;;;13.05;2.60;;;10.40;99.90;;;;;;4987042;28;20026;-71
2023/01/07 12:07:51;;;;;;;12.18;2.40;;;10.50;99.90;;;;;;4980967;28;20073;-72
2023/01/07 12:10:35;;;;;;;11.32;2.33;;;10.50;99.90;;;;;;4992264;28;20482;-71
2023/01/07 12:13:16;;;;;;;12.20;2.80;;;10.50;99.90;;;;;;4985784;28;20086;-72
2023/01/07 12:16:04;;;;;;;14.50;2.63;;;10.50;99.90;;;;;;4988751;28;20032;-73
2023/01/07 12:19:13;;;;;;;10.75;2.38;;;10.50;99.90;;;;;;4990110;28;20394;-73
2023/01/07 12:21:58;;;;;;;13.15;3.42;;;10.50;99.90;;;;;;4986773;28;20125;-74
2023/01/07 12:24:24;;;;;;;12.57;2.80;;;10.50;99.90;;;;;;4985238;28;20044;-72
2023/01/07 12:27:24;;;;;;;16.38;2.55;;;10.60;99.90;;;;;;4984719;28;20114;-75
2023/01/07 12:30:25;;;;;;;7.97;2.08;;;10.70;99.90;;;;;;4990231;28;20482;-73
2023/01/07 12:33:09;;;;;;;16.33;2.58;;;10.70;99.90;;;;;;4991055;28;20458;-73
2023/01/07 12:35:41;;;;;;;7.90;2.60;;;10.70;99.90;;;;;;4978199;28;20081;-73
2023/01/07 12:38:13;;;;;;;13.80;3.38;;;10.70;99.90;;;;;;4987818;28;20030;-72
2023/01/07 12:40:57;;;;;;;9.50;2.20;;;10.70;99.90;;;;;;4990138;28;20034;-74
2023/01/07 12:43:59;;;;;;;12.18;3.10;;;10.70;99.90;;;;;;4980249;28;20026;-73
2023/01/07 12:46:39;;;;;;;13.13;2.47;;;10.60;99.90;;;;;;4993779;28;20399;-73
2023/01/07 12:49:11;;;;;;;11.30;1.83;;;10.60;99.90;;;;;;4982135;28;20021;-73
2023/01/07 12:51:57;;;;;;;10.95;2.13;;;10.60;99.90;;;;;;4992083;28;20026;-73
2023/01/07 12:54:26;;;;;;;10.43;2.75;;;10.60;99.90;;;;;;4991623;28;20022;-73
2023/01/07 12:57:03;;;;;;;11.48;3.05;;;10.50;99.90;;;;;;4991210;28;20072;-72
2023/01/07 12:59:41;;;;;;;15.43;2.78;;;10.60;99.90;;;;;;4986718;28;20034;-72
2023/01/07 13:02:28;;;;;;;13.30;2.53;;;10.60;99.90;;;;;;5005485;23;20082;-72
2023/01/07 13:05:23;;;;;;;18.02;4.18;;;10.60;99.90;;;;;;5009385;28;20072;-73